createdAt,value
2023-05-07T00:01:20.482Z,74.70
2023-05-07T00:16:21.259Z,74.22
2023-05-07T00:31:21.667Z,74.63
2023-05-07T00:46:21.458Z,75.67
2023-05-07T01:01:22.557Z,77.31
2023-05-07T01:16:22.760Z,77.41
2023-05-07T01:31:23.823Z,77.72
2023-05-07T01:46:23.725Z,77.20
2023-05-07T02:01:24.219Z,77.51
2023-05-07T02:16:24.143Z,78.75
2023-05-07T02:31:25.264Z,82.45
2023-05-07T02:46:25.468Z,83.89
2023-05-07T03:01:25.322Z,89.17
2023-05-07T03:16:25.773Z,92.32
2023-05-07T03:31:25.584Z,92.93
2023-05-07T03:46:25.794Z,91.49
2023-05-07T04:01:26.662Z,93.35
2023-05-07T04:16:26.410Z,94.02
2023-05-07T04:31:26.843Z,93.92
2023-05-07T04:46:26.931Z,97.20
2023-05-07T05:01:27.093Z,98.50
2023-05-07T05:16:28.335Z,99.99
2023-05-07T05:31:28.629Z,99.99
2023-05-07T05:46:28.739Z,99.99
2023-05-07T06:01:28.704Z,99.84
2023-05-07T06:16:28.856Z,95.21
2023-05-07T06:31:28.997Z,90.50
2023-05-07T06:46:29.075Z,83.54
2023-05-07T07:01:29.284Z,84.09
2023-05-07T07:16:29.222Z,77.28
2023-05-07T07:31:29.483Z,80.25
2023-05-07T07:46:29.790Z,75.31
2023-05-07T08:01:29.974Z,70.89
2023-05-07T08:16:31.094Z,67.74
2023-05-07T08:31:31.451Z,64.82
2023-05-07T08:46:31.507Z,63.51
2023-05-07T09:01:31.586Z,63.65
2023-05-07T09:16:31.991Z,61.49
2023-05-07T09:31:32.064Z,63.56
2023-05-07T09:46:33.575Z,62.42
2023-05-07T10:01:34.313Z,64.35
2023-05-07T10:16:34.469Z,65.12
2023-05-07T10:31:35.138Z,67.03
2023-05-07T10:46:36.288Z,66.52
2023-05-07T11:01:37.529Z,67.84
2023-05-07T11:16:38.311Z,61.20
2023-05-07T11:31:38.649Z,62.77
2023-05-07T11:46:39.465Z,59.43
2023-05-07T12:01:39.622Z,58.33
2023-05-07T12:16:39.596Z,59.06
2023-05-07T12:31:40.247Z,57.28
2023-05-07T12:46:39.992Z,59.36
2023-05-07T13:01:40.480Z,55.87
2023-05-07T13:16:40.755Z,51.15
2023-05-07T13:31:40.997Z,50.85
2023-05-07T13:46:41.265Z,49.62
2023-05-07T14:01:41.542Z,51.19
2023-05-07T14:16:42.303Z,54.52
2023-05-07T14:31:42.445Z,48.75
2023-05-07T14:46:42.767Z,49.17
2023-05-07T15:01:42.850Z,50.40
2023-05-07T15:16:43.086Z,47.93
2023-05-07T15:31:43.903Z,47.06
2023-05-07T15:46:43.978Z,47.98
2023-05-07T16:01:44.013Z,48.55
2023-05-07T16:16:44.392Z,49.62
2023-05-07T16:31:44.197Z,49.74
2023-05-07T16:46:44.661Z,55.48
2023-05-07T17:01:44.876Z,60.24
2023-05-07T17:16:45.121Z,62.57
2023-05-07T17:31:45.037Z,64.82
2023-05-07T17:46:45.368Z,67.27
2023-05-07T18:01:45.643Z,68.49
2023-05-07T18:16:45.985Z,70.51
2023-05-07T18:31:46.129Z,72.41
2023-05-07T18:46:46.018Z,73.26
2023-05-07T19:01:46.776Z,75.88
2023-05-07T19:16:47.556Z,77.79
2023-05-07T19:31:47.603Z,78.58
2023-05-07T19:46:47.745Z,78.72
2023-05-07T20:01:47.802Z,80.80
2023-05-07T20:16:48.678Z,83.88
2023-05-07T20:31:49.223Z,84.74
2023-05-07T20:46:49.374Z,87.32
2023-05-07T21:01:50.128Z,91.04
2023-05-07T21:16:51.734Z,92.77
2023-05-07T21:31:52.382Z,98.02
2023-05-07T21:46:52.512Z,99.72
2023-05-07T22:01:52.922Z,98.03
2023-05-07T22:16:53.816Z,97.31
2023-05-07T22:31:54.366Z,98.69
2023-05-07T22:46:54.425Z,99.99
2023-05-07T23:01:55.973Z,99.99
2023-05-07T23:16:56.318Z,99.99
2023-05-07T23:31:56.800Z,99.99
2023-05-07T23:46:57.171Z,99.99
